createdAt,value
2019-04-25T00:01:08.867Z,54.90
2019-04-25T00:03:38.584Z,55.00
2019-04-25T00:08:37.375Z,55.50
2019-04-25T00:13:35.162Z,55.80
2019-04-25T00:16:07.710Z,55.90
2019-04-25T00:18:36.637Z,55.90
2019-04-25T00:21:24.618Z,56.70
2019-04-25T00:23:58.343Z,57.10
2019-04-25T00:26:35.278Z,57.10
2019-04-25T00:29:04.339Z,56.80
2019-04-25T00:36:31.847Z,57.00
2019-04-25T00:39:01.928Z,57.90
2019-04-25T00:44:05.238Z,58.90
2019-04-25T00:46:34.405Z,59.10
2019-04-25T00:49:03.503Z,59.30
2019-04-25T00:51:32.191Z,59.60
2019-04-25T00:54:02.403Z,59.50
2019-04-25T00:59:25.514Z,59.00
2019-04-25T01:02:11.353Z,57.80
2019-04-25T01:04:41.944Z,58.30
2019-04-25T01:07:12.563Z,58.60
2019-04-25T01:09:43.481Z,59.70
2019-04-25T01:12:12.828Z,59.50
2019-04-25T01:14:42.016Z,59.40
2019-04-25T01:17:11.692Z,59.30
2019-04-25T01:19:40.910Z,59.40
2019-04-25T01:24:42.116Z,60.20
2019-04-25T01:27:13.440Z,59.70
2019-04-25T01:29:44.358Z,59.60
2019-04-25T01:32:17.022Z,59.60
2019-04-25T01:35:00.348Z,60.80
2019-04-25T01:37:56.047Z,61.80
2019-04-25T01:40:38.012Z,62.00
2019-04-25T01:43:20.376Z,62.40
2019-04-25T01:50:54.294Z,62.50
2019-04-25T01:53:26.358Z,63.00
2019-04-25T01:56:01.587Z,63.00
2019-04-25T01:58:29.112Z,62.60
2019-04-25T02:00:58.611Z,63.00
2019-04-25T02:03:27.929Z,63.50
2019-04-25T02:05:57.307Z,62.80
2019-04-25T02:08:26.495Z,98.90
2019-04-25T02:11:09.705Z,63.60
2019-04-25T02:13:38.771Z,66.60
2019-04-25T02:16:11.167Z,66.40
2019-04-25T02:18:40.295Z,66.50
2019-04-25T02:21:09.766Z,67.00
2019-04-25T02:23:38.830Z,65.90
2019-04-25T02:26:15.639Z,65.40
2019-04-25T02:31:10.240Z,67.20
2019-04-25T02:33:39.174Z,68.00
2019-04-25T02:36:10.157Z,70.00
2019-04-25T02:38:39.313Z,68.80
2019-04-25T02:41:11.157Z,71.00
2019-04-25T02:43:39.876Z,71.40
2019-04-25T02:46:40.147Z,72.70
2019-04-25T02:49:32.960Z,72.90
2019-04-25T02:54:44.891Z,73.10
2019-04-25T02:57:15.224Z,72.60
2019-04-25T02:59:45.133Z,72.50
2019-04-25T03:02:15.466Z,73.40
2019-04-25T03:04:45.023Z,73.00
2019-04-25T03:07:16.970Z,71.60
2019-04-25T03:09:45.223Z,71.30
2019-04-25T03:12:29.091Z,91.30
2019-04-25T03:20:11.841Z,72.10
2019-04-25T03:25:12.982Z,73.20
2019-04-25T03:27:41.415Z,73.70
2019-04-25T03:30:13.745Z,75.00
2019-04-25T03:32:41.070Z,77.30
2019-04-25T03:37:44.004Z,77.60
2019-04-25T03:40:15.212Z,78.00
2019-04-25T03:42:44.247Z,77.90
2019-04-25T03:45:14.984Z,78.00
2019-04-25T03:47:46.525Z,77.30
2019-04-25T03:50:15.504Z,77.20
2019-04-25T03:52:44.440Z,77.20
2019-04-25T03:55:14.377Z,76.90
2019-04-25T04:00:16.497Z,73.80
2019-04-25T04:02:45.170Z,73.90
2019-04-25T04:05:14.976Z,72.30
2019-04-25T04:07:48.230Z,74.20
2019-04-25T04:10:17.139Z,73.50
2019-04-25T04:12:47.882Z,76.20
2019-04-25T04:15:20.021Z,77.00
2019-04-25T04:18:07.200Z,76.50
2019-04-25T04:23:44.371Z,76.60
2019-04-25T04:26:14.468Z,78.80
2019-04-25T04:28:45.710Z,80.30
2019-04-25T04:31:15.408Z,80.20
2019-04-25T04:33:47.266Z,79.90
2019-04-25T04:36:19.826Z,80.70
2019-04-25T04:38:50.113Z,79.20
2019-04-25T04:41:19.140Z,78.50
2019-04-25T04:43:48.296Z,77.90
2019-04-25T04:46:18.815Z,78.00
2019-04-25T04:48:55.317Z,79.20
2019-04-25T04:51:26.513Z,77.30
2019-04-25T04:53:55.662Z,76.40
2019-04-25T04:56:25.727Z,77.00
2019-04-25T04:58:54.761Z,76.80
2019-04-25T05:01:27.294Z,77.10
2019-04-25T05:04:14.888Z,77.20
2019-04-25T05:11:59.150Z,75.50
2019-04-25T05:16:59.796Z,73.90
2019-04-25T05:19:28.530Z,73.00
2019-04-25T05:21:57.609Z,72.80
2019-04-25T05:24:29.688Z,72.50
2019-04-25T05:26:58.361Z,72.60
2019-04-25T05:31:58.537Z,72.90
2019-04-25T05:34:29.438Z,72.90
2019-04-25T05:37:03.814Z,71.70
2019-04-25T05:42:25.665Z,70.50
2019-04-25T05:44:56.434Z,70.40
2019-04-25T05:47:26.104Z,70.50
2019-04-25T05:52:25.263Z,67.70
2019-04-25T05:57:26.908Z,65.10
2019-04-25T05:59:55.906Z,62.00
2019-04-25T06:02:25.672Z,59.90
2019-04-25T06:04:55.562Z,59.00
2019-04-25T06:07:26.769Z,58.80
2019-04-25T06:10:14.429Z,57.50
2019-04-25T06:12:53.539Z,56.20
2019-04-25T06:18:16.467Z,54.70
2019-04-25T06:20:47.079Z,54.50
2019-04-25T06:23:39.263Z,53.80
2019-04-25T06:26:23.054Z,53.20
2019-04-25T06:31:21.298Z,51.50
2019-04-25T06:33:50.544Z,50.20
2019-04-25T06:41:18.793Z,48.20
2019-04-25T06:43:54.223Z,47.70
2019-04-25T06:47:01.431Z,47.40
2019-04-25T06:49:38.918Z,46.50
2019-04-25T06:52:10.043Z,46.40
2019-04-25T06:54:39.229Z,46.50
2019-04-25T06:57:11.470Z,45.40
2019-04-25T06:59:41.513Z,45.30
2019-04-25T07:04:47.176Z,45.40
2019-04-25T07:07:19.164Z,43.00
2019-04-25T07:12:16.667Z,43.90
2019-04-25T07:17:16.354Z,42.10
2019-04-25T07:19:44.683Z,42.50
2019-04-25T07:22:15.497Z,42.50
2019-04-25T07:27:40.713Z,40.60
2019-04-25T07:30:31.226Z,37.90
2019-04-25T07:32:59.564Z,36.30
2019-04-25T07:35:31.602Z,37.40
2019-04-25T07:38:00.596Z,38.30
2019-04-25T07:40:29.676Z,36.10
2019-04-25T07:42:58.623Z,32.80
2019-04-25T07:45:27.592Z,32.60
2019-04-25T07:50:26.860Z,30.40
2019-04-25T07:52:58.448Z,30.10
2019-04-25T07:55:27.586Z,29.80
2019-04-25T07:57:56.216Z,30.00
2019-04-25T08:02:54.319Z,28.40
2019-04-25T08:05:24.186Z,27.20
2019-04-25T08:10:26.016Z,27.50
2019-04-25T08:12:54.996Z,27.00
2019-04-25T08:15:31.755Z,26.80
2019-04-25T08:18:04.083Z,26.70
2019-04-25T08:20:34.718Z,26.50
2019-04-25T08:23:08.098Z,26.70
2019-04-25T08:25:39.214Z,26.80
2019-04-25T08:30:36.693Z,26.60
2019-04-25T08:33:09.295Z,25.90
2019-04-25T08:35:38.265Z,26.20
2019-04-25T08:38:10.732Z,27.00
2019-04-25T08:40:40.795Z,25.70
2019-04-25T08:43:09.725Z,26.40
2019-04-25T08:45:38.569Z,25.30
2019-04-25T08:48:07.553Z,25.30
2019-04-25T08:53:13.684Z,25.10
2019-04-25T08:56:07.520Z,24.70
2019-04-25T08:59:14.263Z,25.10
2019-04-25T09:02:07.803Z,25.20
2019-04-25T09:04:44.513Z,25.60
2019-04-25T09:07:13.619Z,25.40
2019-04-25T09:09:44.014Z,24.80
2019-04-25T09:12:14.029Z,24.10
2019-04-25T09:17:14.263Z,25.20
2019-04-25T09:22:15.102Z,26.80
2019-04-25T09:24:45.298Z,26.00
2019-04-25T09:27:14.408Z,26.20
2019-04-25T09:29:45.223Z,26.20
2019-04-25T09:32:18.324Z,25.50
2019-04-25T09:34:48.044Z,24.80
2019-04-25T09:37:18.911Z,24.90
2019-04-25T09:39:56.211Z,25.40
2019-04-25T09:42:28.592Z,25.80
2019-04-25T09:45:27.266Z,26.60
2019-04-25T09:47:57.830Z,25.60
2019-04-25T09:50:47.766Z,25.30
2019-04-25T09:53:23.552Z,25.30
2019-04-25T09:56:05.270Z,24.20
2019-04-25T10:01:11.882Z,25.20
2019-04-25T10:06:26.485Z,25.20
2019-04-25T10:08:55.664Z,25.80
2019-04-25T10:11:24.843Z,24.90
2019-04-25T10:14:00.104Z,24.90
2019-04-25T10:16:29.204Z,24.60
2019-04-25T10:18:59.425Z,25.20
2019-04-25T10:21:28.451Z,25.30
2019-04-25T10:26:28.144Z,25.80
2019-04-25T10:28:57.129Z,25.30
2019-04-25T10:36:27.909Z,25.90
2019-04-25T10:39:07.190Z,25.70
2019-04-25T10:41:27.791Z,25.90
2019-04-25T10:46:25.334Z,25.70
2019-04-25T10:48:56.102Z,25.50
2019-04-25T10:51:24.876Z,25.50
2019-04-25T10:53:59.837Z,25.80
2019-04-25T10:56:28.996Z,26.20
2019-04-25T10:58:59.277Z,25.30
2019-04-25T11:01:28.440Z,24.90
2019-04-25T11:04:08.803Z,24.90
2019-04-25T11:09:08.677Z,24.80
2019-04-25T11:11:37.759Z,24.70
2019-04-25T11:16:36.927Z,24.70
2019-04-25T11:19:05.982Z,23.60
2019-04-25T11:21:35.003Z,25.50
2019-04-25T11:26:34.538Z,28.80
2019-04-25T11:29:03.661Z,24.80
2019-04-25T11:31:37.681Z,25.60
2019-04-25T11:39:35.293Z,25.30
2019-04-25T11:44:39.146Z,24.10
2019-04-25T11:49:47.420Z,23.80
2019-04-25T11:52:26.867Z,25.30
2019-04-25T11:54:46.856Z,23.60
2019-04-25T11:57:18.140Z,23.70
2019-04-25T11:59:49.204Z,24.10
2019-04-25T12:04:49.093Z,24.30
2019-04-25T12:07:18.145Z,24.20
2019-04-25T12:09:50.289Z,39.60
2019-04-25T12:12:19.407Z,24.50
2019-04-25T12:14:51.661Z,24.10
2019-04-25T12:17:26.181Z,24.50
2019-04-25T12:19:56.186Z,23.70
2019-04-25T12:22:25.277Z,23.40
2019-04-25T12:27:33.340Z,24.50
2019-04-25T12:35:06.043Z,23.90
2019-04-25T12:37:35.263Z,24.70
2019-04-25T12:40:06.442Z,24.30
2019-04-25T12:45:20.845Z,24.80
2019-04-25T12:47:57.289Z,25.50
2019-04-25T12:50:24.789Z,24.30
2019-04-25T12:58:03.517Z,24.20
2019-04-25T13:00:34.247Z,24.80
2019-04-25T13:05:34.260Z,24.60
2019-04-25T13:08:04.752Z,24.70
2019-04-25T13:10:34.285Z,24.80
2019-04-25T13:13:06.523Z,25.70
2019-04-25T13:18:13.456Z,25.50
2019-04-25T13:34:10.940Z,26.00
2019-04-25T13:41:54.408Z,25.40
2019-04-25T13:44:24.418Z,25.40
2019-04-25T13:56:56.339Z,26.00
2019-04-25T14:04:28.140Z,25.40
2019-04-25T14:09:34.763Z,26.00
2019-04-25T14:12:10.932Z,25.60
2019-04-25T14:14:39.974Z,25.90
2019-04-25T14:17:20.307Z,25.70
2019-04-25T14:22:39.266Z,25.70
2019-04-25T14:27:30.116Z,25.80
2019-04-25T14:29:59.086Z,26.20
2019-04-25T14:32:30.942Z,26.00
2019-04-25T14:35:03.493Z,26.30
2019-04-25T14:37:39.266Z,26.30
2019-04-25T14:40:06.828Z,26.80
2019-04-25T14:47:45.419Z,25.20
2019-04-25T14:50:16.259Z,25.30
2019-04-25T14:52:49.347Z,25.40
2019-04-25T14:55:36.147Z,25.30
2019-04-25T14:58:07.849Z,25.10
2019-04-25T15:03:16.457Z,25.40
2019-04-25T15:10:54.685Z,25.90
2019-04-25T15:13:31.806Z,25.80
2019-04-25T15:16:01.217Z,26.00
2019-04-25T15:21:11.024Z,26.80
2019-04-25T15:23:43.213Z,26.30
2019-04-25T15:31:13.107Z,25.60
2019-04-25T15:33:48.077Z,25.90
2019-04-25T15:39:02.740Z,26.30
2019-04-25T15:41:51.835Z,26.40
2019-04-25T15:49:55.918Z,26.80
2019-04-25T15:52:26.663Z,27.20
2019-04-25T16:02:36.769Z,27.40
2019-04-25T16:10:13.219Z,28.00
2019-04-25T16:12:42.323Z,27.70
2019-04-25T16:15:14.437Z,27.60
2019-04-25T16:17:43.727Z,28.50
2019-04-25T16:30:13.029Z,28.10
2019-04-25T16:35:13.710Z,28.50
2019-04-25T16:37:47.177Z,28.80
2019-04-25T16:40:19.641Z,29.10
2019-04-25T16:45:17.363Z,28.80
2019-04-25T16:52:44.573Z,29.40
2019-04-25T16:55:13.458Z,29.10
2019-04-25T17:00:22.741Z,29.30
2019-04-25T17:02:51.453Z,29.80
2019-04-25T17:05:21.617Z,30.00
2019-04-25T17:07:50.325Z,29.70
2019-04-25T17:10:19.118Z,51.60
2019-04-25T17:15:30.608Z,30.20
2019-04-25T17:18:08.577Z,31.60
2019-04-25T17:23:11.183Z,30.70
2019-04-25T17:25:39.887Z,32.90
2019-04-25T17:28:08.674Z,33.70
2019-04-25T17:30:39.058Z,33.00
2019-04-25T17:36:19.589Z,32.40
2019-04-25T17:38:52.379Z,32.80
2019-04-25T17:43:49.530Z,32.10
2019-04-25T17:48:48.199Z,33.40
2019-04-25T17:56:13.643Z,32.80
2019-04-25T17:58:43.223Z,33.20
2019-04-25T18:01:14.548Z,32.90
2019-04-25T18:03:44.038Z,33.30
2019-04-25T18:06:12.862Z,33.60
2019-04-25T18:11:10.743Z,33.20
2019-04-25T18:13:40.830Z,32.80
2019-04-25T18:19:20.909Z,33.50
2019-04-25T18:21:49.674Z,32.90
2019-04-25T18:24:55.383Z,32.70
2019-04-25T18:27:27.984Z,33.20
2019-04-25T18:29:57.024Z,33.10
2019-04-25T18:32:28.179Z,33.00
2019-04-25T18:35:07.457Z,33.50
2019-04-25T18:40:23.922Z,33.20
2019-04-25T18:43:11.777Z,33.70
2019-04-25T18:45:44.419Z,34.20
2019-04-25T18:48:14.255Z,34.30
2019-04-25T18:50:42.955Z,34.30
2019-04-25T18:53:33.722Z,34.30
2019-04-25T18:56:22.516Z,34.70
2019-04-25T18:59:10.267Z,34.70
2019-04-25T19:02:00.407Z,56.10
2019-04-25T19:04:49.178Z,34.80
2019-04-25T19:07:22.594Z,34.10
2019-04-25T19:09:48.508Z,34.00
2019-04-25T19:14:45.861Z,34.60
2019-04-25T19:17:14.617Z,34.40
2019-04-25T19:19:43.576Z,34.40
2019-04-25T19:22:12.391Z,34.20
2019-04-25T19:27:22.995Z,34.40
2019-04-25T19:29:41.878Z,34.70
2019-04-25T19:32:10.828Z,35.00
2019-04-25T19:34:40.168Z,34.90
2019-04-25T19:37:09.919Z,35.20
2019-04-25T19:39:41.572Z,35.50
2019-04-25T19:42:32.019Z,36.00
2019-04-25T19:45:00.902Z,36.40
2019-04-25T19:47:29.706Z,36.00
2019-04-25T19:52:29.420Z,36.00
2019-04-25T19:54:57.203Z,36.60
2019-04-25T19:57:25.992Z,36.70
2019-04-25T19:59:54.782Z,36.80
2019-04-25T20:02:30.427Z,36.90
2019-04-25T20:05:36.396Z,36.90
2019-04-25T20:08:19.729Z,37.40
2019-04-25T20:10:53.645Z,37.30
2019-04-25T20:13:22.373Z,36.80
2019-04-25T20:18:20.480Z,37.10
2019-04-25T20:20:50.027Z,37.60
2019-04-25T20:23:18.795Z,37.70
2019-04-25T20:25:48.250Z,37.90
2019-04-25T20:28:17.057Z,38.00
2019-04-25T20:30:46.996Z,37.90
2019-04-25T20:33:15.783Z,37.70
2019-04-25T20:35:44.876Z,37.10
2019-04-25T20:40:43.044Z,37.30
2019-04-25T20:43:11.729Z,38.00
2019-04-25T20:45:40.538Z,38.30
2019-04-25T20:48:09.406Z,38.20
2019-04-25T20:50:38.150Z,38.10
2019-04-25T20:53:06.865Z,38.00
2019-04-25T20:55:35.618Z,37.20
2019-04-25T20:58:04.474Z,54.40
2019-04-25T21:00:40.507Z,37.80
2019-04-25T21:03:09.273Z,37.60
2019-04-25T21:05:38.003Z,38.60
2019-04-25T21:08:06.798Z,38.40
2019-04-25T21:10:35.503Z,38.90
2019-04-25T21:13:06.214Z,39.10
2019-04-25T21:15:52.475Z,39.80
2019-04-25T21:18:35.023Z,39.50
2019-04-25T21:21:03.794Z,40.20
2019-04-25T21:26:01.264Z,40.40
2019-04-25T21:28:30.347Z,41.50
2019-04-25T21:31:01.874Z,41.90
2019-04-25T21:33:29.587Z,42.20
2019-04-25T21:35:58.616Z,42.40
2019-04-25T21:38:28.300Z,42.50
2019-04-25T21:41:07.153Z,42.10
2019-04-25T21:46:08.743Z,42.20
2019-04-25T21:48:37.888Z,42.40
2019-04-25T21:51:24.417Z,42.90
2019-04-25T21:53:53.193Z,43.80
2019-04-25T21:56:23.266Z,43.90
2019-04-25T21:58:51.961Z,44.00
2019-04-25T22:01:21.511Z,44.30
2019-04-25T22:03:50.211Z,78.50
2019-04-25T22:06:19.180Z,45.10
2019-04-25T22:08:48.054Z,45.00
2019-04-25T22:11:16.735Z,45.30
2019-04-25T22:13:45.726Z,45.40
2019-04-25T22:16:14.975Z,45.40
2019-04-25T22:18:43.994Z,45.90
2019-04-25T22:21:12.963Z,46.20
2019-04-25T22:23:42.013Z,46.00
2019-04-25T22:26:11.223Z,70.10
2019-04-25T22:28:40.204Z,46.90
2019-04-25T22:31:14.131Z,46.90
2019-04-25T22:33:58.637Z,47.00
2019-04-25T22:36:28.534Z,47.70
2019-04-25T22:39:12.798Z,48.50
2019-04-25T22:41:46.286Z,48.80
2019-04-25T22:44:14.831Z,48.90
2019-04-25T22:46:44.060Z,49.10
2019-04-25T22:51:41.225Z,48.70
2019-04-25T22:54:10.218Z,49.40
2019-04-25T22:56:38.962Z,49.40
2019-04-25T22:59:08.939Z,49.80
2019-04-25T23:02:02.489Z,49.90
2019-04-25T23:04:43.482Z,50.00
2019-04-25T23:07:23.800Z,50.20
2019-04-25T23:09:53.258Z,49.60
2019-04-25T23:12:22.250Z,49.00
2019-04-25T23:14:50.945Z,73.90
2019-04-25T23:19:48.332Z,49.60
2019-04-25T23:22:17.344Z,50.40
2019-04-25T23:24:52.385Z,51.10
2019-04-25T23:27:43.091Z,51.00
2019-04-25T23:30:14.450Z,51.00
2019-04-25T23:32:43.253Z,51.80
2019-04-25T23:35:24.256Z,52.30
2019-04-25T23:37:42.417Z,51.60
2019-04-25T23:42:40.327Z,51.80
2019-04-25T23:45:10.301Z,52.50
2019-04-25T23:47:39.073Z,52.70
2019-04-25T23:50:08.701Z,53.00
2019-04-25T23:52:37.541Z,53.30
2019-04-25T23:55:06.779Z,53.40
2019-04-25T23:57:36.690Z,53.50
